Containerships 6 — DABH — position and weather

sailwx.info

Track history (hours):
 
Tides and Currents Weather Stations Pressure Air Temp Water Temp Dewpoint Dewpoint Depression Visibility Wind Speed Wind Dir Waves Ship Positions

Containerships 6

Last reported at 2014-Oct-31 08:31 UTC. Time now 2014-Oct-31 11:32 UTC.
Position N 51°53' E 004°25'.

Length 155 m; beam 21.8 m; draft 8.9 m.

Type: Ship (hazmat cat A). MMSI: 211315096.

Date/timePositionNaut miles runAvg speedWind from/ knotsBaromVisibWave heightAir tempDewpointWater temp
2014-Oct-31 08:31N 51°53' E 004°25'0 0.0
2014-Oct-31 07:31N 51°53' E 004°25'0 0.0
2014-Oct-31 06:31N 51°53' E 004°25'0 0.0
2014-Oct-31 05:31N 51°53' E 004°25'0 0.0
2014-Oct-31 04:31N 51°53' E 004°25'0 0.0
2014-Oct-31 03:31N 51°53' E 004°25'0 0.1
2014-Oct-31 02:33N 51°53' E 004°25'8 8.0
2014-Oct-31 01:33N 51°56' E 004°13'1514.7
2014-Oct-31 00:33N 52°00' E 003°50'1615.8
2014-Oct-30 23:33N 52°08' E 003°28'1918.6
2014-Oct-30 22:33N 52°19' E 003°03'2018.6
2014-Oct-30 21:28N 52°30' E 002°36'1718.2
2014-Oct-30 20:32N 52°40' E 002°13'1717.5
2014-Oct-30 19:34N 52°50' E 001°49'1716.7
2014-Oct-30 18:33N 53°01' E 001°30'1717.2
2014-Oct-30 17:33N 53°15' E 001°13'3517.4
2014-Oct-30 15:33N 53°45' E 000°42'1817.7
2014-Oct-30 14:33N 53°58' E 000°22'1817.8
2014-Oct-30 13:33N 54°11' E 000°02'1818.0
2014-Oct-30 12:33N 54°25' W 000°18'1817.9
2014-Oct-30 11:32N 54°36' W 000°44'1514.9
2014-Oct-30 10:33N 54°39' W 001°09'2 2.2
2014-Oct-30 09:26N 54°36' W 001°09'0 0.0
2014-Oct-30 08:26N 54°36' W 001°09'0 0.0
2014-Oct-29 17:23N 54°36' W 001°09'0 0.0
2014-Oct-29 16:23N 54°36' W 001°09'0 0.0
2014-Oct-29 15:23N 54°36' W 001°09'0 0.0
2014-Oct-29 14:29N 54°36' W 001°09'3 2.7
2014-Oct-29 13:33N 54°39' W 001°09'1413.6
2014-Oct-29 12:33N 54°46' W 000°49'1716.0
2014-Oct-29 11:31N 54°54' W 000°24'37816.9
2014-Oct-28 13:07N 57°41' E 009°47'916.2
2014-Oct-28 12:33N 57°44' E 010°04'1616.3
2014-Oct-28 11:33N 57°48' E 010°33'1616.3
2014-Oct-28 10:33N 57°41' E 011°01'1818.1
2014-Oct-28 09:33N 57°28' E 011°25'1818.3
2014-Oct-28 08:33N 57°11' E 011°38'1818.5
2014-Oct-28 07:33N 56°54' E 011°48'1616.5
2014-Oct-28 06:33N 56°37' E 011°46'1918.5
2014-Oct-28 05:33N 56°21' E 011°29'1818.2
2014-Oct-28 04:33N 56°06' E 011°10'2117.9
2014-Oct-28 03:24N 55°49' E 010°50'1517.0
2014-Oct-28 02:30N 55°34' E 010°50'2316.3
2014-Oct-28 01:04N 55°13' E 011°06'815.2
2014-Oct-28 00:33N 55°05' E 011°03'1514.5
2014-Oct-27 23:33N 54°52' E 010°53'1413.8
2014-Oct-27 22:33N 54°39' E 011°02'1917.3
2014-Oct-27 21:25N 54°30' E 011°32'1416.7
2014-Oct-27 20:33N 54°27' E 011°56'1413.6
2014-Oct-27 19:32N 54°35' E 012°15'1717.0
2014-Oct-27 18:33N 54°46' E 012°37'1817.8
2014-Oct-27 17:33N 54°53' E 013°05'1917.7
2014-Oct-27 16:30N 54°59' E 013°36'1717.6
2014-Oct-27 15:33N 55°05' E 014°03'1717.1
2014-Oct-27 14:34N 55°18' E 014°22'1717.2
2014-Oct-27 13:33N 55°29' E 014°46'1717.4
2014-Oct-27 12:33N 55°38' E 015°13'9216.9
2014-Oct-27 07:06N 56°29' E 017°30'4316.9
2014-Oct-27 04:34N 56°53' E 018°35'1717.0
2014-Oct-27 03:33N 57°02' E 019°02'201 5.4
2014-Oct-25 14:04N 59°36' E 023°07'916.1
2014-Oct-25 13:31N 59°38' E 023°24'1616.3
2014-Oct-25 12:33N 59°43' E 023°53'1916.6
2014-Oct-25 11:26N 59°48' E 024°29'2815.1
2014-Oct-25 09:33N 60°06' E 025°11'6 5.4
2014-Oct-25 08:24N 60°13' E 025°12'0 0.0
2014-Oct-25 07:27N 60°13' E 025°12'0 0.0
2014-Oct-25 06:30N 60°13' E 025°12'0 0.0
2014-Oct-25 05:33N 60°13' E 025°12'0 0.0
2014-Oct-25 04:33N 60°13' E 025°12'0 0.0
2014-Oct-25 03:33N 60°13' E 025°12'8 7.9
2014-Oct-25 02:33N 60°05' E 025°10'3415.9
2014-Oct-25 00:26N 60°00' E 026°17'1617.7
2014-Oct-24 23:33N 60°01' E 026°48'1916.7
2014-Oct-24 22:26N 60°06' E 027°24'3 0.1
2014-Oct-23 22:17N 60°03' E 027°22'1215.3
2014-Oct-23 21:28N 59°58' E 026°60'1415.0
2014-Oct-23 20:33N 59°58' E 026°32'4811.2
2014-Oct-23 16:15N 59°47' E 024°59'3 3.9
2014-Oct-23 15:33N 59°46' E 024°54'7 6.9
2014-Oct-23 14:34N 59°45' E 024°40'1515.4
2014-Oct-23 13:33N 59°41' E 024°11'1515.6
2014-Oct-23 12:33N 59°36' E 023°42'321 7.5
2014-Oct-21 17:33N 55°57' E 016°22'1817.8
2014-Oct-21 16:33N 55°48' E 015°55'2118.1
2014-Oct-21 15:23N 55°38' E 015°22'1518.5
2014-Oct-21 14:33N 55°30' E 014°58'1818.0
2014-Oct-21 13:34N 55°19' E 014°33'1818.4
2014-Oct-21 12:33N 55°05' E 014°13'1818.2
2014-Oct-21 11:33N 54°57' E 013°44'2418.5
2014-Oct-21 10:15N 54°49' E 013°05'  
Track history (hours):
 
Tides and Currents Weather Stations Pressure Air Temp Water Temp Dewpoint Dewpoint Depression Visibility Wind Speed Wind Dir Waves Ship Positions

Containerships 6

Last reported at 2014-Oct-31 08:31 UTC. Time now 2014-Oct-31 11:32 UTC.
Position N 51°53' E 004°25'.

Length 155 m; beam 21.8 m; draft 8.9 m.

Type: Ship (hazmat cat A). MMSI: 211315096.

Date/timePositionNaut miles runAvg speedWind from/ knotsBaromVisibWave heightAir tempDewpointWater temp
2014-Oct-31 08:31N 51°53' E 004°25'0 0.0
2014-Oct-31 07:31N 51°53' E 004°25'0 0.0
2014-Oct-31 06:31N 51°53' E 004°25'0 0.0
2014-Oct-31 05:31N 51°53' E 004°25'0 0.0
2014-Oct-31 04:31N 51°53' E 004°25'0 0.0
2014-Oct-31 03:31N 51°53' E 004°25'0 0.1
2014-Oct-31 02:33N 51°53' E 004°25'8 8.0
2014-Oct-31 01:33N 51°56' E 004°13'1514.7
2014-Oct-31 00:33N 52°00' E 003°50'1615.8
2014-Oct-30 23:33N 52°08' E 003°28'1918.6
2014-Oct-30 22:33N 52°19' E 003°03'2018.6
2014-Oct-30 21:28N 52°30' E 002°36'1718.2
2014-Oct-30 20:32N 52°40' E 002°13'1717.5
2014-Oct-30 19:34N 52°50' E 001°49'1716.7
2014-Oct-30 18:33N 53°01' E 001°30'1717.2
2014-Oct-30 17:33N 53°15' E 001°13'3517.4
2014-Oct-30 15:33N 53°45' E 000°42'1817.7
2014-Oct-30 14:33N 53°58' E 000°22'1817.8
2014-Oct-30 13:33N 54°11' E 000°02'1818.0
2014-Oct-30 12:33N 54°25' W 000°18'1817.9
2014-Oct-30 11:32N 54°36' W 000°44'1514.9
2014-Oct-30 10:33N 54°39' W 001°09'2 2.2
2014-Oct-30 09:26N 54°36' W 001°09'0 0.0
2014-Oct-30 08:26N 54°36' W 001°09'0 0.0
2014-Oct-29 17:23N 54°36' W 001°09'0 0.0
2014-Oct-29 16:23N 54°36' W 001°09'0 0.0
2014-Oct-29 15:23N 54°36' W 001°09'0 0.0
2014-Oct-29 14:29N 54°36' W 001°09'3 2.7
2014-Oct-29 13:33N 54°39' W 001°09'1413.6
2014-Oct-29 12:33N 54°46' W 000°49'1716.0
2014-Oct-29 11:31N 54°54' W 000°24'37816.9
2014-Oct-28 13:07N 57°41' E 009°47'916.2
2014-Oct-28 12:33N 57°44' E 010°04'1616.3
2014-Oct-28 11:33N 57°48' E 010°33'1616.3
2014-Oct-28 10:33N 57°41' E 011°01'1818.1
2014-Oct-28 09:33N 57°28' E 011°25'1818.3
2014-Oct-28 08:33N 57°11' E 011°38'1818.5
2014-Oct-28 07:33N 56°54' E 011°48'1616.5
2014-Oct-28 06:33N 56°37' E 011°46'1918.5
2014-Oct-28 05:33N 56°21' E 011°29'1818.2
2014-Oct-28 04:33N 56°06' E 011°10'2117.9
2014-Oct-28 03:24N 55°49' E 010°50'1517.0
2014-Oct-28 02:30N 55°34' E 010°50'2316.3
2014-Oct-28 01:04N 55°13' E 011°06'815.2
2014-Oct-28 00:33N 55°05' E 011°03'1514.5
2014-Oct-27 23:33N 54°52' E 010°53'1413.8
2014-Oct-27 22:33N 54°39' E 011°02'1917.3
2014-Oct-27 21:25N 54°30' E 011°32'1416.7
2014-Oct-27 20:33N 54°27' E 011°56'1413.6
2014-Oct-27 19:32N 54°35' E 012°15'1717.0
2014-Oct-27 18:33N 54°46' E 012°37'1817.8
2014-Oct-27 17:33N 54°53' E 013°05'1917.7
2014-Oct-27 16:30N 54°59' E 013°36'1717.6
2014-Oct-27 15:33N 55°05' E 014°03'1717.1
2014-Oct-27 14:34N 55°18' E 014°22'1717.2
2014-Oct-27 13:33N 55°29' E 014°46'1717.4
2014-Oct-27 12:33N 55°38' E 015°13'9216.9
2014-Oct-27 07:06N 56°29' E 017°30'4316.9
2014-Oct-27 04:34N 56°53' E 018°35'1717.0
2014-Oct-27 03:33N 57°02' E 019°02'201 5.4
2014-Oct-25 14:04N 59°36' E 023°07'916.1
2014-Oct-25 13:31N 59°38' E 023°24'1616.3
2014-Oct-25 12:33N 59°43' E 023°53'1916.6
2014-Oct-25 11:26N 59°48' E 024°29'2815.1
2014-Oct-25 09:33N 60°06' E 025°11'6 5.4
2014-Oct-25 08:24N 60°13' E 025°12'0 0.0
2014-Oct-25 07:27N 60°13' E 025°12'0 0.0
2014-Oct-25 06:30N 60°13' E 025°12'0 0.0
2014-Oct-25 05:33N 60°13' E 025°12'0 0.0
2014-Oct-25 04:33N 60°13' E 025°12'0 0.0
2014-Oct-25 03:33N 60°13' E 025°12'8 7.9
2014-Oct-25 02:33N 60°05' E 025°10'3415.9
2014-Oct-25 00:26N 60°00' E 026°17'1617.7
2014-Oct-24 23:33N 60°01' E 026°48'1916.7
2014-Oct-24 22:26N 60°06' E 027°24'3 0.1
2014-Oct-23 22:17N 60°03' E 027°22'1215.3
2014-Oct-23 21:28N 59°58' E 026°60'1415.0
2014-Oct-23 20:33N 59°58' E 026°32'4811.2
2014-Oct-23 16:15N 59°47' E 024°59'3 3.9
2014-Oct-23 15:33N 59°46' E 024°54'7 6.9
2014-Oct-23 14:34N 59°45' E 024°40'1515.4
2014-Oct-23 13:33N 59°41' E 024°11'1515.6
2014-Oct-23 12:33N 59°36' E 023°42'321 7.5
2014-Oct-21 17:33N 55°57' E 016°22'1817.8
2014-Oct-21 16:33N 55°48' E 015°55'2118.1
2014-Oct-21 15:23N 55°38' E 015°22'1518.5
2014-Oct-21 14:33N 55°30' E 014°58'1818.0
2014-Oct-21 13:34N 55°19' E 014°33'1818.4
2014-Oct-21 12:33N 55°05' E 014°13'1818.2
2014-Oct-21 11:33N 54°57' E 013°44'2418.5
2014-Oct-21 10:15N 54°49' E 013°05'  

Dump ship's entire track history